sensor_id;sensor_type;location;lat;lon;timestamp;P1;durP1;ratioP1;P2;durP2;ratioP2
46675;SDS011;32412;51.478;5.694;2024-03-02T00:01:09;1.75;;;0.63;;
46675;SDS011;32412;51.478;5.694;2024-03-02T00:03:44;3.72;;;1.02;;
46675;SDS011;32412;51.478;5.694;2024-03-02T00:06:13;3.13;;;1.20;;
46675;SDS011;32412;51.478;5.694;2024-03-02T00:08:42;1.33;;;0.90;;
46675;SDS011;32412;51.478;5.694;2024-03-02T00:11:14;3.25;;;1.08;;
46675;SDS011;32412;51.478;5.694;2024-03-02T00:13:42;3.60;;;0.90;;
46675;SDS011;32412;51.478;5.694;2024-03-02T00:16:08;1.58;;;0.82;;
46675;SDS011;32412;51.478;5.694;2024-03-02T00:18:36;4.35;;;0.80;;
46675;SDS011;32412;51.478;5.694;2024-03-02T00:21:05;0.95;;;0.47;;
46675;SDS011;32412;51.478;5.694;2024-03-02T00:23:35;2.30;;;0.90;;
46675;SDS011;32412;51.478;5.694;2024-03-02T00:26:02;3.63;;;1.13;;
46675;SDS011;32412;51.478;5.694;2024-03-02T00:28:35;3.85;;;0.90;;
46675;SDS011;32412;51.478;5.694;2024-03-02T00:33:53;2.92;;;1.00;;
46675;SDS011;32412;51.478;5.694;2024-03-02T00:36:33;1.75;;;0.70;;
46675;SDS011;32412;51.478;5.694;2024-03-02T00:39:00;5.65;;;1.02;;
46675;SDS011;32412;51.478;5.694;2024-03-02T00:47:18;0.20;;;0.20;;
46675;SDS011;32412;51.478;5.694;2024-03-02T00:49:46;0.45;;;0.45;;
46675;SDS011;32412;51.478;5.694;2024-03-02T00:52:12;0.93;;;0.28;;
46675;SDS011;32412;51.478;5.694;2024-03-02T00:58:00;0.13;;;0.13;;
46675;SDS011;32412;51.478;5.694;2024-03-02T01:00:41;0.65;;;0.32;;
46675;SDS011;32412;51.478;5.694;2024-03-02T01:09:52;0.20;;;0.20;;
46675;SDS011;32412;51.478;5.694;2024-03-02T01:15:43;0.52;;;0.30;;
46675;SDS011;32412;51.478;5.694;2024-03-02T01:21:33;1.92;;;0.50;;
46675;SDS011;32412;51.478;5.694;2024-03-02T01:40:14;0.25;;;0.22;;
46675;SDS011;32412;51.478;5.694;2024-03-02T01:42:46;0.15;;;0.15;;
46675;SDS011;32412;51.478;5.694;2024-03-02T01:45:20;0.32;;;0.20;;
46675;SDS011;32412;51.478;5.694;2024-03-02T01:50:32;0.20;;;0.20;;
46675;SDS011;32412;51.478;5.694;2024-03-02T01:53:01;1.48;;;0.32;;
46675;SDS011;32412;51.478;5.694;2024-03-02T01:55:32;0.22;;;0.10;;
46675;SDS011;32412;51.478;5.694;2024-03-02T01:57:59;0.45;;;0.13;;
46675;SDS011;32412;51.478;5.694;2024-03-02T02:00:26;1.75;;;0.30;;
46675;SDS011;32412;51.478;5.694;2024-03-02T02:02:52;0.15;;;0.15;;
46675;SDS011;32412;51.478;5.694;2024-03-02T02:05:22;0.75;;;0.30;;
46675;SDS011;32412;51.478;5.694;2024-03-02T02:07:50;1.17;;;0.20;;
46675;SDS011;32412;51.478;5.694;2024-03-02T02:16:41;0.50;;;0.17;;
46675;SDS011;32412;51.478;5.694;2024-03-02T02:19:07;0.15;;;0.15;;
46675;SDS011;32412;51.478;5.694;2024-03-02T02:21:34;1.65;;;0.40;;
46675;SDS011;32412;51.478;5.694;2024-03-02T02:24:03;0.20;;;0.20;;
46675;SDS011;32412;51.478;5.694;2024-03-02T02:26:32;0.30;;;0.20;;
46675;SDS011;32412;51.478;5.694;2024-03-02T02:29:01;0.35;;;0.32;;
46675;SDS011;32412;51.478;5.694;2024-03-02T02:31:36;0.17;;;0.17;;
46675;SDS011;32412;51.478;5.694;2024-03-02T02:37:25;0.63;;;0.40;;
46675;SDS011;32412;51.478;5.694;2024-03-02T02:39:50;0.40;;;0.25;;
46675;SDS011;32412;51.478;5.694;2024-03-02T02:42:16;2.70;;;0.28;;
46675;SDS011;32412;51.478;5.694;2024-03-02T02:44:44;1.77;;;0.22;;
46675;SDS011;32412;51.478;5.694;2024-03-02T02:47:16;0.70;;;0.30;;
46675;SDS011;32412;51.478;5.694;2024-03-02T02:49:41;0.22;;;0.22;;
46675;SDS011;32412;51.478;5.694;2024-03-02T02:52:12;0.70;;;0.30;;
46675;SDS011;32412;51.478;5.694;2024-03-02T02:54:44;0.82;;;0.30;;
46675;SDS011;32412;51.478;5.694;2024-03-02T02:57:13;0.20;;;0.20;;
46675;SDS011;32412;51.478;5.694;2024-03-02T02:59:41;0.22;;;0.20;;
46675;SDS011;32412;51.478;5.694;2024-03-02T03:02:07;0.98;;;0.30;;
46675;SDS011;32412;51.478;5.694;2024-03-02T03:04:43;2.35;;;0.20;;
46675;SDS011;32412;51.478;5.694;2024-03-02T03:07:12;1.00;;;0.30;;
46675;SDS011;32412;51.478;5.694;2024-03-02T03:09:38;0.50;;;0.20;;
46675;SDS011;32412;51.478;5.694;2024-03-02T03:12:06;0.30;;;0.30;;
46675;SDS011;32412;51.478;5.694;2024-03-02T03:14:50;1.20;;;0.20;;
46675;SDS011;32412;51.478;5.694;2024-03-02T03:17:24;2.28;;;0.40;;
46675;SDS011;32412;51.478;5.694;2024-03-02T03:19:52;0.70;;;0.45;;
46675;SDS011;32412;51.478;5.694;2024-03-02T03:22:18;0.40;;;0.25;;
46675;SDS011;32412;51.478;5.694;2024-03-02T03:24:47;1.67;;;0.28;;
46675;SDS011;32412;51.478;5.694;2024-03-02T03:30:38;0.90;;;0.20;;
46675;SDS011;32412;51.478;5.694;2024-03-02T03:33:13;0.20;;;0.20;;
46675;SDS011;32412;51.478;5.694;2024-03-02T03:35:42;0.30;;;0.28;;
46675;SDS011;32412;51.478;5.694;2024-03-02T03:38:10;0.63;;;0.40;;
46675;SDS011;32412;51.478;5.694;2024-03-02T03:40:37;0.40;;;0.28;;
46675;SDS011;32412;51.478;5.694;2024-03-02T03:43:03;0.68;;;0.35;;
46675;SDS011;32412;51.478;5.694;2024-03-02T03:45:32;0.52;;;0.38;;
46675;SDS011;32412;51.478;5.694;2024-03-02T03:47:58;1.65;;;0.30;;
46675;SDS011;32412;51.478;5.694;2024-03-02T03:50:26;0.28;;;0.20;;
46675;SDS011;32412;51.478;5.694;2024-03-02T03:52:52;0.80;;;0.30;;
46675;SDS011;32412;51.478;5.694;2024-03-02T03:55:17;5.43;;;0.30;;
46675;SDS011;32412;51.478;5.694;2024-03-02T03:57:43;0.30;;;0.30;;
46675;SDS011;32412;51.478;5.694;2024-03-02T04:00:11;0.32;;;0.25;;
46675;SDS011;32412;51.478;5.694;2024-03-02T04:02:37;1.08;;;0.40;;
46675;SDS011;32412;51.478;5.694;2024-03-02T04:05:03;0.75;;;0.20;;
46675;SDS011;32412;51.478;5.694;2024-03-02T04:07:33;1.20;;;0.30;;
46675;SDS011;32412;51.478;5.694;2024-03-02T04:10:08;0.10;;;0.10;;
46675;SDS011;32412;51.478;5.694;2024-03-02T04:12:36;0.63;;;0.30;;
46675;SDS011;32412;51.478;5.694;2024-03-02T04:15:03;0.50;;;0.30;;
46675;SDS011;32412;51.478;5.694;2024-03-02T04:17:41;0.20;;;0.20;;
46675;SDS011;32412;51.478;5.694;2024-03-02T04:20:07;0.82;;;0.25;;
46675;SDS011;32412;51.478;5.694;2024-03-02T04:22:33;2.05;;;0.77;;
46675;SDS011;32412;51.478;5.694;2024-03-02T04:25:00;0.50;;;0.30;;
46675;SDS011;32412;51.478;5.694;2024-03-02T04:27:30;0.30;;;0.20;;
46675;SDS011;32412;51.478;5.694;2024-03-02T04:30:03;0.98;;;0.15;;
46675;SDS011;32412;51.478;5.694;2024-03-02T04:32:35;0.17;;;0.17;;
46675;SDS011;32412;51.478;5.694;2024-03-02T04:35:04;1.83;;;0.28;;
46675;SDS011;32412;51.478;5.694;2024-03-02T04:37:31;0.65;;;0.30;;
46675;SDS011;32412;51.478;5.694;2024-03-02T04:40:02;1.17;;;0.20;;
46675;SDS011;32412;51.478;5.694;2024-03-02T04:42:43;0.47;;;0.30;;
46675;SDS011;32412;51.478;5.694;2024-03-02T04:45:08;1.48;;;0.35;;
46675;SDS011;32412;51.478;5.694;2024-03-02T04:47:36;0.30;;;0.30;;
46675;SDS011;32412;51.478;5.694;2024-03-02T04:50:02;0.65;;;0.30;;
46675;SDS011;32412;51.478;5.694;2024-03-02T04:52:34;0.80;;;0.30;;
46675;SDS011;32412;51.478;5.694;2024-03-02T04:55:00;0.60;;;0.30;;
46675;SDS011;32412;51.478;5.694;2024-03-02T04:57:55;0.52;;;0.30;;
46675;SDS011;32412;51.478;5.694;2024-03-02T05:00:23;2.13;;;0.40;;
46675;SDS011;32412;51.478;5.694;2024-03-02T05:02:49;1.02;;;0.30;;
46675;SDS011;32412;51.478;5.694;2024-03-02T05:05:20;0.82;;;0.30;;
46675;SDS011;32412;51.478;5.694;2024-03-02T05:07:52;1.05;;;0.38;;
46675;SDS011;32412;51.478;5.694;2024-03-02T05:10:22;0.47;;;0.30;;
46675;SDS011;32412;51.478;5.694;2024-03-02T05:12:49;2.25;;;0.30;;
46675;SDS011;32412;51.478;5.694;2024-03-02T05:15:22;0.45;;;0.20;;
46675;SDS011;32412;51.478;5.694;2024-03-02T05:17:47;2.85;;;0.40;;
46675;SDS011;32412;51.478;5.694;2024-03-02T05:20:19;1.55;;;0.35;;
46675;SDS011;32412;51.478;5.694;2024-03-02T05:22:50;0.82;;;0.30;;
46675;SDS011;32412;51.478;5.694;2024-03-02T05:25:16;0.65;;;0.28;;
46675;SDS011;32412;51.478;5.694;2024-03-02T05:27:43;0.65;;;0.30;;
46675;SDS011;32412;51.478;5.694;2024-03-02T05:30:17;0.25;;;0.17;;
46675;SDS011;32412;51.478;5.694;2024-03-02T05:32:43;1.33;;;0.30;;
46675;SDS011;32412;51.478;5.694;2024-03-02T05:35:09;0.40;;;0.30;;
46675;SDS011;32412;51.478;5.694;2024-03-02T05:37:36;1.33;;;0.30;;
46675;SDS011;32412;51.478;5.694;2024-03-02T05:40:02;3.92;;;0.40;;
46675;SDS011;32412;51.478;5.694;2024-03-02T05:42:35;1.55;;;0.30;;
46675;SDS011;32412;51.478;5.694;2024-03-02T05:45:15;1.05;;;0.50;;
46675;SDS011;32412;51.478;5.694;2024-03-02T05:47:41;1.05;;;0.40;;
46675;SDS011;32412;51.478;5.694;2024-03-02T05:50:07;0.73;;;0.13;;
46675;SDS011;32412;51.478;5.694;2024-03-02T05:52:33;0.45;;;0.28;;
46675;SDS011;32412;51.478;5.694;2024-03-02T05:55:01;1.20;;;0.50;;
46675;SDS011;32412;51.478;5.694;2024-03-02T05:57:27;0.95;;;0.30;;
46675;SDS011;32412;51.478;5.694;2024-03-02T06:00:12;0.88;;;0.30;;
46675;SDS011;32412;51.478;5.694;2024-03-02T06:02:42;2.78;;;0.47;;
46675;SDS011;32412;51.478;5.694;2024-03-02T06:05:08;1.48;;;0.40;;
46675;SDS011;32412;51.478;5.694;2024-03-02T06:07:34;0.73;;;0.40;;
46675;SDS011;32412;51.478;5.694;2024-03-02T06:09:59;1.77;;;0.50;;
46675;SDS011;32412;51.478;5.694;2024-03-02T06:12:25;0.45;;;0.45;;
46675;SDS011;32412;51.478;5.694;2024-03-02T06:14:51;1.35;;;0.40;;
46675;SDS011;32412;51.478;5.694;2024-03-02T06:17:17;1.33;;;0.45;;
46675;SDS011;32412;51.478;5.694;2024-03-02T06:19:45;1.20;;;0.40;;
46675;SDS011;32412;51.478;5.694;2024-03-02T06:22:14;0.60;;;0.40;;
46675;SDS011;32412;51.478;5.694;2024-03-02T06:24:43;3.10;;;0.73;;
46675;SDS011;32412;51.478;5.694;2024-03-02T06:27:08;2.30;;;0.50;;
46675;SDS011;32412;51.478;5.694;2024-03-02T06:29:41;0.80;;;0.47;;
46675;SDS011;32412;51.478;5.694;2024-03-02T06:32:10;1.88;;;0.45;;
46675;SDS011;32412;51.478;5.694;2024-03-02T06:34:41;0.90;;;0.50;;
46675;SDS011;32412;51.478;5.694;2024-03-02T06:37:07;1.25;;;0.63;;
46675;SDS011;32412;51.478;5.694;2024-03-02T06:39:33;1.40;;;0.73;;
46675;SDS011;32412;51.478;5.694;2024-03-02T06:41:59;4.13;;;0.90;;
46675;SDS011;32412;51.478;5.694;2024-03-02T06:44:25;1.70;;;0.60;;
46675;SDS011;32412;51.478;5.694;2024-03-02T06:46:51;1.95;;;0.70;;
46675;SDS011;32412;51.478;5.694;2024-03-02T06:52:41;4.13;;;0.63;;
46675;SDS011;32412;51.478;5.694;2024-03-02T06:55:08;0.88;;;0.60;;
46675;SDS011;32412;51.478;5.694;2024-03-02T06:57:44;2.60;;;0.60;;
46675;SDS011;32412;51.478;5.694;2024-03-02T07:02:45;4.15;;;0.82;;
46675;SDS011;32412;51.478;5.694;2024-03-02T07:05:17;5.90;;;1.38;;
46675;SDS011;32412;51.478;5.694;2024-03-02T07:07:43;2.70;;;0.45;;
46675;SDS011;32412;51.478;5.694;2024-03-02T07:10:08;2.08;;;0.77;;
46675;SDS011;32412;51.478;5.694;2024-03-02T07:12:34;2.08;;;0.70;;
46675;SDS011;32412;51.478;5.694;2024-03-02T07:15:00;3.05;;;0.68;;
46675;SDS011;32412;51.478;5.694;2024-03-02T07:17:29;2.85;;;0.63;;
46675;SDS011;32412;51.478;5.694;2024-03-02T07:19:58;2.42;;;0.40;;
46675;SDS011;32412;51.478;5.694;2024-03-02T07:22:24;1.73;;;0.60;;
46675;SDS011;32412;51.478;5.694;2024-03-02T07:24:49;2.83;;;0.60;;
46675;SDS011;32412;51.478;5.694;2024-03-02T07:27:15;1.95;;;0.73;;
46675;SDS011;32412;51.478;5.694;2024-03-02T07:29:42;2.80;;;0.75;;
46675;SDS011;32412;51.478;5.694;2024-03-02T07:32:09;1.27;;;0.63;;
46675;SDS011;32412;51.478;5.694;2024-03-02T07:34:35;1.20;;;0.57;;
46675;SDS011;32412;51.478;5.694;2024-03-02T07:37:02;1.33;;;0.40;;
46675;SDS011;32412;51.478;5.694;2024-03-02T07:39:28;2.10;;;0.60;;
46675;SDS011;32412;51.478;5.694;2024-03-02T07:42:02;2.25;;;0.60;;
46675;SDS011;32412;51.478;5.694;2024-03-02T07:44:28;2.93;;;0.50;;
46675;SDS011;32412;51.478;5.694;2024-03-02T07:46:53;1.77;;;0.57;;
46675;SDS011;32412;51.478;5.694;2024-03-02T07:49:19;3.00;;;0.65;;
46675;SDS011;32412;51.478;5.694;2024-03-02T07:51:47;4.47;;;0.55;;
46675;SDS011;32412;51.478;5.694;2024-03-02T07:54:14;2.35;;;0.50;;
46675;SDS011;32412;51.478;5.694;2024-03-02T07:56:43;1.65;;;0.40;;
46675;SDS011;32412;51.478;5.694;2024-03-02T07:59:13;2.78;;;0.68;;
46675;SDS011;32412;51.478;5.694;2024-03-02T08:01:38;2.35;;;0.55;;
46675;SDS011;32412;51.478;5.694;2024-03-02T08:04:04;6.93;;;0.70;;
46675;SDS011;32412;51.478;5.694;2024-03-02T08:06:33;1.42;;;0.50;;
46675;SDS011;32412;51.478;5.694;2024-03-02T08:08:59;3.70;;;0.60;;
46675;SDS011;32412;51.478;5.694;2024-03-02T08:11:34;2.30;;;0.60;;
46675;SDS011;32412;51.478;5.694;2024-03-02T08:14:03;3.05;;;0.60;;
46675;SDS011;32412;51.478;5.694;2024-03-02T08:16:31;1.38;;;0.50;;
46675;SDS011;32412;51.478;5.694;2024-03-02T08:19:01;2.72;;;0.60;;
46675;SDS011;32412;51.478;5.694;2024-03-02T08:21:31;3.28;;;0.40;;
46675;SDS011;32412;51.478;5.694;2024-03-02T08:24:02;1.05;;;0.52;;
46675;SDS011;32412;51.478;5.694;2024-03-02T08:26:31;1.80;;;0.60;;
46675;SDS011;32412;51.478;5.694;2024-03-02T08:28:57;2.10;;;0.50;;
46675;SDS011;32412;51.478;5.694;2024-03-02T08:31:38;3.47;;;0.70;;
46675;SDS011;32412;51.478;5.694;2024-03-02T08:34:03;2.78;;;0.88;;
46675;SDS011;32412;51.478;5.694;2024-03-02T08:36:32;4.75;;;0.50;;
46675;SDS011;32412;51.478;5.694;2024-03-02T08:38:57;6.03;;;0.60;;
46675;SDS011;32412;51.478;5.694;2024-03-02T08:41:23;3.17;;;0.57;;
46675;SDS011;32412;51.478;5.694;2024-03-02T08:43:49;1.85;;;0.77;;
46675;SDS011;32412;51.478;5.694;2024-03-02T08:46:17;6.38;;;0.77;;
46675;SDS011;32412;51.478;5.694;2024-03-02T08:48:43;3.13;;;0.63;;
46675;SDS011;32412;51.478;5.694;2024-03-02T08:51:09;2.70;;;0.70;;
46675;SDS011;32412;51.478;5.694;2024-03-02T08:53:37;2.15;;;0.40;;
46675;SDS011;32412;51.478;5.694;2024-03-02T08:56:03;1.15;;;0.60;;
46675;SDS011;32412;51.478;5.694;2024-03-02T08:58:33;3.95;;;0.70;;
46675;SDS011;32412;51.478;5.694;2024-03-02T09:01:01;1.75;;;0.52;;
46675;SDS011;32412;51.478;5.694;2024-03-02T09:03:27;1.60;;;0.50;;
46675;SDS011;32412;51.478;5.694;2024-03-02T09:05:53;5.20;;;0.70;;
46675;SDS011;32412;51.478;5.694;2024-03-02T09:08:19;5.32;;;0.70;;
46675;SDS011;32412;51.478;5.694;2024-03-02T09:10:47;3.97;;;0.70;;
46675;SDS011;32412;51.478;5.694;2024-03-02T09:13:13;5.07;;;0.63;;
46675;SDS011;32412;51.478;5.694;2024-03-02T09:15:38;1.85;;;0.63;;
46675;SDS011;32412;51.478;5.694;2024-03-02T09:18:08;2.20;;;0.80;;
46675;SDS011;32412;51.478;5.694;2024-03-02T09:20:33;4.32;;;0.90;;
46675;SDS011;32412;51.478;5.694;2024-03-02T09:23:02;1.45;;;0.75;;
46675;SDS011;32412;51.478;5.694;2024-03-02T09:25:31;2.75;;;0.77;;
46675;SDS011;32412;51.478;5.694;2024-03-02T09:27:57;1.55;;;0.50;;
46675;SDS011;32412;51.478;5.694;2024-03-02T09:30:36;2.95;;;0.52;;
46675;SDS011;32412;51.478;5.694;2024-03-02T09:36:23;3.50;;;0.73;;
46675;SDS011;32412;51.478;5.694;2024-03-02T09:38:52;2.25;;;0.60;;
46675;SDS011;32412;51.478;5.694;2024-03-02T09:41:21;4.53;;;0.70;;
46675;SDS011;32412;51.478;5.694;2024-03-02T09:47:08;3.63;;;0.70;;
46675;SDS011;32412;51.478;5.694;2024-03-02T09:49:37;2.55;;;0.52;;
46675;SDS011;32412;51.478;5.694;2024-03-02T09:52:06;3.25;;;0.52;;
46675;SDS011;32412;51.478;5.694;2024-03-02T09:54:42;2.40;;;0.40;;
46675;SDS011;32412;51.478;5.694;2024-03-02T09:57:12;1.73;;;0.52;;
46675;SDS011;32412;51.478;5.694;2024-03-02T09:59:41;2.50;;;0.80;;
46675;SDS011;32412;51.478;5.694;2024-03-02T10:02:07;3.80;;;0.50;;
46675;SDS011;32412;51.478;5.694;2024-03-02T10:08:01;2.65;;;0.80;;
46675;SDS011;32412;51.478;5.694;2024-03-02T10:10:37;1.42;;;0.50;;
46675;SDS011;32412;51.478;5.694;2024-03-02T10:13:08;2.13;;;1.00;;
46675;SDS011;32412;51.478;5.694;2024-03-02T10:15:41;4.72;;;1.00;;
46675;SDS011;32412;51.478;5.694;2024-03-02T10:18:13;2.17;;;0.63;;
46675;SDS011;32412;51.478;5.694;2024-03-02T10:20:41;2.47;;;0.63;;
46675;SDS011;32412;51.478;5.694;2024-03-02T10:23:14;3.65;;;0.52;;
46675;SDS011;32412;51.478;5.694;2024-03-02T10:25:41;5.75;;;1.20;;
46675;SDS011;32412;51.478;5.694;2024-03-02T10:28:11;1.83;;;0.70;;
46675;SDS011;32412;51.478;5.694;2024-03-02T10:30:37;2.75;;;0.77;;
46675;SDS011;32412;51.478;5.694;2024-03-02T10:33:12;1.83;;;1.02;;
46675;SDS011;32412;51.478;5.694;2024-03-02T10:35:41;4.32;;;0.98;;
46675;SDS011;32412;51.478;5.694;2024-03-02T10:38:07;3.92;;;1.00;;
46675;SDS011;32412;51.478;5.694;2024-03-02T10:40:46;3.30;;;0.70;;
46675;SDS011;32412;51.478;5.694;2024-03-02T10:43:13;2.13;;;0.90;;
46675;SDS011;32412;51.478;5.694;2024-03-02T10:45:40;3.10;;;0.80;;
46675;SDS011;32412;51.478;5.694;2024-03-02T10:48:06;2.92;;;0.70;;
46675;SDS011;32412;51.478;5.694;2024-03-02T10:50:39;1.20;;;0.65;;
46675;SDS011;32412;51.478;5.694;2024-03-02T10:53:11;6.75;;;0.77;;
46675;SDS011;32412;51.478;5.694;2024-03-02T10:55:36;2.05;;;0.73;;
46675;SDS011;32412;51.478;5.694;2024-03-02T10:58:04;2.78;;;1.02;;
46675;SDS011;32412;51.478;5.694;2024-03-02T11:00:33;2.88;;;0.60;;
46675;SDS011;32412;51.478;5.694;2024-03-02T11:06:34;2.63;;;0.80;;
46675;SDS011;32412;51.478;5.694;2024-03-02T11:09:05;1.52;;;0.60;;
46675;SDS011;32412;51.478;5.694;2024-03-02T11:11:40;3.15;;;0.65;;
46675;SDS011;32412;51.478;5.694;2024-03-02T11:14:10;0.95;;;0.63;;
46675;SDS011;32412;51.478;5.694;2024-03-02T11:16:38;1.35;;;0.52;;
46675;SDS011;32412;51.478;5.694;2024-03-02T11:19:15;3.13;;;0.82;;
46675;SDS011;32412;51.478;5.694;2024-03-02T11:21:41;2.15;;;0.70;;
46675;SDS011;32412;51.478;5.694;2024-03-02T11:26:52;4.35;;;0.82;;
46675;SDS011;32412;51.478;5.694;2024-03-02T11:32:06;5.65;;;0.85;;
46675;SDS011;32412;51.478;5.694;2024-03-02T11:34:45;4.28;;;0.80;;
46675;SDS011;32412;51.478;5.694;2024-03-02T11:37:13;3.17;;;0.80;;
46675;SDS011;32412;51.478;5.694;2024-03-02T11:39:39;4.00;;;1.10;;
46675;SDS011;32412;51.478;5.694;2024-03-02T11:42:06;2.88;;;0.70;;
46675;SDS011;32412;51.478;5.694;2024-03-02T11:44:34;3.55;;;1.10;;
46675;SDS011;32412;51.478;5.694;2024-03-02T11:47:02;3.20;;;0.82;;
46675;SDS011;32412;51.478;5.694;2024-03-02T11:49:51;1.90;;;1.13;;
46675;SDS011;32412;51.478;5.694;2024-03-02T11:52:26;2.30;;;0.82;;
46675;SDS011;32412;51.478;5.694;2024-03-02T11:54:55;3.67;;;1.02;;
46675;SDS011;32412;51.478;5.694;2024-03-02T11:57:22;3.60;;;1.30;;
46675;SDS011;32412;51.478;5.694;2024-03-02T11:59:50;1.27;;;0.60;;
46675;SDS011;32412;51.478;5.694;2024-03-02T12:02:22;2.10;;;0.88;;
46675;SDS011;32412;51.478;5.694;2024-03-02T12:04:50;4.15;;;0.93;;
46675;SDS011;32412;51.478;5.694;2024-03-02T12:07:23;2.00;;;0.80;;
46675;SDS011;32412;51.478;5.694;2024-03-02T12:09:49;4.03;;;0.98;;
46675;SDS011;32412;51.478;5.694;2024-03-02T12:12:41;3.92;;;0.80;;
46675;SDS011;32412;51.478;5.694;2024-03-02T12:15:07;1.98;;;0.88;;
46675;SDS011;32412;51.478;5.694;2024-03-02T12:17:36;6.32;;;0.85;;
46675;SDS011;32412;51.478;5.694;2024-03-02T12:20:04;4.10;;;0.90;;
46675;SDS011;32412;51.478;5.694;2024-03-02T12:22:33;1.55;;;0.70;;
46675;SDS011;32412;51.478;5.694;2024-03-02T12:24:59;2.40;;;0.70;;
46675;SDS011;32412;51.478;5.694;2024-03-02T12:27:28;2.75;;;0.77;;
46675;SDS011;32412;51.478;5.694;2024-03-02T12:29:54;3.03;;;1.02;;
46675;SDS011;32412;51.478;5.694;2024-03-02T12:32:23;3.55;;;0.60;;
46675;SDS011;32412;51.478;5.694;2024-03-02T12:34:50;2.85;;;1.17;;
46675;SDS011;32412;51.478;5.694;2024-03-02T12:37:20;1.98;;;0.82;;
46675;SDS011;32412;51.478;5.694;2024-03-02T12:39:45;1.05;;;0.52;;
46675;SDS011;32412;51.478;5.694;2024-03-02T12:42:11;1.55;;;0.70;;
46675;SDS011;32412;51.478;5.694;2024-03-02T12:44:37;3.60;;;0.80;;
46675;SDS011;32412;51.478;5.694;2024-03-02T12:47:04;2.15;;;0.88;;
46675;SDS011;32412;51.478;5.694;2024-03-02T12:49:33;2.63;;;0.98;;
46675;SDS011;32412;51.478;5.694;2024-03-02T12:52:00;1.30;;;0.85;;
46675;SDS011;32412;51.478;5.694;2024-03-02T12:54:27;1.33;;;0.55;;
46675;SDS011;32412;51.478;5.694;2024-03-02T12:56:53;2.00;;;0.90;;
46675;SDS011;32412;51.478;5.694;2024-03-02T12:59:19;2.72;;;0.80;;
46675;SDS011;32412;51.478;5.694;2024-03-02T13:01:51;1.83;;;0.73;;
46675;SDS011;32412;51.478;5.694;2024-03-02T13:04:21;3.53;;;0.90;;
46675;SDS011;32412;51.478;5.694;2024-03-02T13:06:48;3.42;;;0.70;;
46675;SDS011;32412;51.478;5.694;2024-03-02T13:09:15;4.20;;;0.80;;
46675;SDS011;32412;51.478;5.694;2024-03-02T13:11:41;5.18;;;0.70;;
46675;SDS011;32412;51.478;5.694;2024-03-02T13:14:07;1.60;;;0.45;;
46675;SDS011;32412;51.478;5.694;2024-03-02T13:16:37;1.55;;;0.55;;
46675;SDS011;32412;51.478;5.694;2024-03-02T13:19:07;1.98;;;0.50;;
46675;SDS011;32412;51.478;5.694;2024-03-02T13:21:36;5.85;;;0.80;;
46675;SDS011;32412;51.478;5.694;2024-03-02T13:24:03;2.78;;;0.80;;
46675;SDS011;32412;51.478;5.694;2024-03-02T13:26:30;2.33;;;0.90;;
46675;SDS011;32412;51.478;5.694;2024-03-02T13:28:59;1.23;;;0.60;;
46675;SDS011;32412;51.478;5.694;2024-03-02T13:31:27;2.10;;;0.70;;
46675;SDS011;32412;51.478;5.694;2024-03-02T13:33:53;3.42;;;0.77;;
46675;SDS011;32412;51.478;5.694;2024-03-02T13:36:18;1.40;;;0.63;;
46675;SDS011;32412;51.478;5.694;2024-03-02T13:38:44;5.93;;;1.13;;
46675;SDS011;32412;51.478;5.694;2024-03-02T13:41:12;3.95;;;0.93;;
46675;SDS011;32412;51.478;5.694;2024-03-02T13:43:38;1.85;;;0.70;;
46675;SDS011;32412;51.478;5.694;2024-03-02T13:46:04;1.88;;;0.77;;
46675;SDS011;32412;51.478;5.694;2024-03-02T13:48:31;3.25;;;0.90;;
46675;SDS011;32412;51.478;5.694;2024-03-02T13:50:57;1.95;;;0.80;;
46675;SDS011;32412;51.478;5.694;2024-03-02T13:53:23;2.92;;;0.50;;
46675;SDS011;32412;51.478;5.694;2024-03-02T13:55:48;1.75;;;0.80;;
46675;SDS011;32412;51.478;5.694;2024-03-02T13:58:14;1.25;;;0.63;;
46675;SDS011;32412;51.478;5.694;2024-03-02T14:00:40;2.55;;;0.70;;
46675;SDS011;32412;51.478;5.694;2024-03-02T14:03:06;3.60;;;0.52;;
46675;SDS011;32412;51.478;5.694;2024-03-02T14:05:32;3.80;;;0.70;;
46675;SDS011;32412;51.478;5.694;2024-03-02T14:07:58;2.38;;;0.77;;
46675;SDS011;32412;51.478;5.694;2024-03-02T14:10:25;2.85;;;0.50;;
46675;SDS011;32412;51.478;5.694;2024-03-02T14:12:52;4.60;;;0.73;;
46675;SDS011;32412;51.478;5.694;2024-03-02T14:15:17;2.00;;;0.60;;
46675;SDS011;32412;51.478;5.694;2024-03-02T14:17:43;3.40;;;0.63;;
46675;SDS011;32412;51.478;5.694;2024-03-02T14:20:09;2.65;;;0.80;;
46675;SDS011;32412;51.478;5.694;2024-03-02T14:22:38;2.08;;;0.50;;
46675;SDS011;32412;51.478;5.694;2024-03-02T14:25:07;1.25;;;0.60;;
46675;SDS011;32412;51.478;5.694;2024-03-02T14:27:33;3.50;;;0.82;;
46675;SDS011;32412;51.478;5.694;2024-03-02T14:29:58;1.13;;;0.55;;
46675;SDS011;32412;51.478;5.694;2024-03-02T14:32:24;1.25;;;0.55;;
46675;SDS011;32412;51.478;5.694;2024-03-02T14:34:50;1.55;;;0.60;;
46675;SDS011;32412;51.478;5.694;2024-03-02T14:37:15;1.30;;;0.40;;
46675;SDS011;32412;51.478;5.694;2024-03-02T14:39:41;1.17;;;0.70;;
46675;SDS011;32412;51.478;5.694;2024-03-02T14:42:07;2.25;;;0.98;;
46675;SDS011;32412;51.478;5.694;2024-03-02T14:44:33;2.75;;;1.13;;
46675;SDS011;32412;51.478;5.694;2024-03-02T14:47:00;1.65;;;0.60;;
46675;SDS011;32412;51.478;5.694;2024-03-02T14:49:28;1.23;;;0.73;;
46675;SDS011;32412;51.478;5.694;2024-03-02T14:51:54;1.77;;;0.75;;
46675;SDS011;32412;51.478;5.694;2024-03-02T14:54:20;2.42;;;0.90;;
46675;SDS011;32412;51.478;5.694;2024-03-02T14:56:45;0.70;;;0.68;;
46675;SDS011;32412;51.478;5.694;2024-03-02T14:59:11;2.30;;;0.80;;
46675;SDS011;32412;51.478;5.694;2024-03-02T15:01:37;2.58;;;0.82;;
46675;SDS011;32412;51.478;5.694;2024-03-02T15:04:03;1.52;;;0.90;;
46675;SDS011;32412;51.478;5.694;2024-03-02T15:06:29;2.22;;;0.70;;
46675;SDS011;32412;51.478;5.694;2024-03-02T15:08:58;1.85;;;0.80;;
46675;SDS011;32412;51.478;5.694;2024-03-02T15:11:23;0.80;;;0.50;;
46675;SDS011;32412;51.478;5.694;2024-03-02T15:13:50;1.73;;;0.80;;
46675;SDS011;32412;51.478;5.694;2024-03-02T15:16:16;1.95;;;0.80;;
46675;SDS011;32412;51.478;5.694;2024-03-02T15:18:42;2.00;;;0.88;;
46675;SDS011;32412;51.478;5.694;2024-03-02T15:21:07;4.57;;;0.88;;
46675;SDS011;32412;51.478;5.694;2024-03-02T15:23:33;1.30;;;0.70;;
46675;SDS011;32412;51.478;5.694;2024-03-02T15:25:59;1.02;;;0.70;;
46675;SDS011;32412;51.478;5.694;2024-03-02T15:28:25;1.70;;;0.40;;
46675;SDS011;32412;51.478;5.694;2024-03-02T15:30:51;1.08;;;0.50;;
46675;SDS011;32412;51.478;5.694;2024-03-02T15:33:16;0.73;;;0.60;;
46675;SDS011;32412;51.478;5.694;2024-03-02T15:35:43;1.50;;;0.70;;
46675;SDS011;32412;51.478;5.694;2024-03-02T15:38:11;2.20;;;0.65;;
46675;SDS011;32412;51.478;5.694;2024-03-02T15:40:40;1.02;;;0.70;;
46675;SDS011;32412;51.478;5.694;2024-03-02T15:43:09;1.00;;;0.63;;
46675;SDS011;32412;51.478;5.694;2024-03-02T15:45:34;2.15;;;0.50;;
46675;SDS011;32412;51.478;5.694;2024-03-02T15:48:02;0.65;;;0.55;;
46675;SDS011;32412;51.478;5.694;2024-03-02T15:50:32;1.08;;;0.70;;
46675;SDS011;32412;51.478;5.694;2024-03-02T15:52:57;1.80;;;0.50;;
46675;SDS011;32412;51.478;5.694;2024-03-02T15:55:27;0.55;;;0.55;;
46675;SDS011;32412;51.478;5.694;2024-03-02T15:57:53;1.40;;;0.70;;
46675;SDS011;32412;51.478;5.694;2024-03-02T16:00:22;4.20;;;0.77;;
46675;SDS011;32412;51.478;5.694;2024-03-02T16:02:47;2.03;;;1.23;;
46675;SDS011;32412;51.478;5.694;2024-03-02T16:05:13;1.13;;;0.95;;
46675;SDS011;32412;51.478;5.694;2024-03-02T16:07:41;2.28;;;0.70;;
46675;SDS011;32412;51.478;5.694;2024-03-02T16:10:07;0.52;;;0.52;;
46675;SDS011;32412;51.478;5.694;2024-03-02T16:12:33;1.40;;;0.73;;
46675;SDS011;32412;51.478;5.694;2024-03-02T16:15:01;1.98;;;1.10;;
46675;SDS011;32412;51.478;5.694;2024-03-02T16:17:28;0.43;;;0.40;;